Time;durP1;ratioP1;P1;durP2;ratioP2;P2;SDS_P1;SDS_P2;PMS_P1;PMS_P2;Temp;Humidity;BMP_temperature;BMP_pressure;BME280_temperature;BME280_humidity;BME280_pressure;Samples;Min_cycle;Max_cycle;Signal;HPM_P1;HPM_P2
2022/07/21 00:04:26;;;;;;;1.67;1.58;;;;;;;20.59;58.52;97035.41;10214718;29;20427;-47
2022/07/21 00:09:45;;;;;;;2.30;1.80;;;;;;;20.58;58.39;97037.31;10228074;28;20055;-47
2022/07/21 00:15:05;;;;;;;2.53;2.00;;;;;;;20.58;58.41;97026.50;10215143;29;20063;-46
2022/07/21 00:20:27;;;;;;;2.13;1.92;;;;;;;20.57;58.08;97030.28;10221916;28;20063;-48
2022/07/21 00:25:47;;;;;;;3.03;1.88;;;;;;;20.58;58.19;97039.19;10227100;29;20066;-47
2022/07/21 00:31:07;;;;;;;2.90;1.88;;;;;;;20.59;58.09;97043.50;10214151;29;20189;-46
2022/07/21 00:36:26;;;;;;;2.78;1.95;;;;;;;20.58;57.89;97048.13;10224003;29;20064;-47
2022/07/21 00:41:45;;;;;;;2.58;1.98;;;;;;;20.57;57.79;97041.13;10214411;29;20059;-47
2022/07/21 00:47:04;;;;;;;2.25;2.03;;;;;;;20.57;57.40;97043.84;10213968;29;20068;-49
2022/07/21 00:52:25;;;;;;;3.90;2.28;;;;;;;20.58;57.20;97044.63;10213803;29;20055;-47
2022/07/21 00:57:45;;;;;;;4.80;2.17;;;;;;;20.57;57.04;97043.84;10214049;29;20063;-48
2022/07/21 01:03:05;;;;;;;2.83;1.83;;;;;;;20.57;56.89;97056.59;10226092;28;20488;-56
2022/07/21 01:08:25;;;;;;;2.22;1.90;;;;;;;20.58;56.94;97045.44;10213397;29;20078;-56
2022/07/21 01:13:45;;;;;;;2.17;1.92;;;;;;;20.56;56.91;97039.53;10213102;29;20052;-57
2022/07/21 01:19:06;;;;;;;2.65;1.88;;;;;;;20.57;56.80;97037.63;10212354;29;20055;-57
2022/07/21 01:24:25;;;;;;;2.17;1.80;;;;;;;20.57;56.74;97035.72;10217744;28;20070;-57
2022/07/21 01:29:44;;;;;;;2.22;1.90;;;;;;;20.57;56.60;97026.81;10224548;28;20052;-57
2022/07/21 01:35:06;;;;;;;3.08;2.17;;;;;;;20.56;56.79;97026.00;10225032;28;20055;-57
2022/07/21 01:46:04;;;;;;;3.20;1.90;;;;;;;20.56;56.80;97017.88;10212013;29;20059;-56
2022/07/21 01:51:24;;;;;;;2.30;2.08;;;;;;;20.54;56.77;97015.50;10209731;29;20056;-55
2022/07/21 01:56:44;;;;;;;2.70;1.85;;;;;;;20.55;56.71;97021.72;10212514;29;20064;-57
2022/07/21 02:02:03;;;;;;;2.25;1.90;;;;;;;20.55;56.70;97027.91;10224808;29;20047;-57
2022/07/21 02:07:23;;;;;;;3.65;2.00;;;;;;;20.54;56.59;97029.03;10211540;29;20062;-57
2022/07/21 02:12:42;;;;;;;3.08;2.00;;;;;;;20.54;56.51;97025.53;10212074;29;20051;-56
2022/07/21 02:18:01;;;;;;;2.70;1.90;;;;;;;20.54;56.47;97025.53;10203761;29;20115;-56
2022/07/21 02:23:21;;;;;;;2.03;1.75;;;;;;;20.54;56.37;97026.34;10211509;29;20056;-56
2022/07/21 02:28:41;;;;;;;3.45;1.90;;;;;;;20.54;55.97;97028.22;10214535;29;20060;-56
2022/07/21 02:34:01;;;;;;;3.00;2.00;;;;;;;20.53;56.04;97032.84;10223304;28;20052;-56
2022/07/21 02:39:20;;;;;;;2.65;1.95;;;;;;;20.54;55.65;97041.75;10219347;29;20407;-57
2022/07/21 02:44:39;;;;;;;1.80;1.63;;;;;;;20.53;55.43;97034.78;10231235;29;20048;-57
2022/07/21 02:49:59;;;;;;;6.68;2.10;;;;;;;20.53;55.19;97030.16;10217763;29;20059;-56
2022/07/21 02:55:18;;;;;;;2.97;1.98;;;;;;;20.53;55.15;97037.47;10207977;29;20059;-56
2022/07/21 03:00:42;;;;;;;2.20;2.00;;;;;;;20.51;55.05;97032.38;10217903;29;20059;-56
2022/07/21 03:06:01;;;;;;;3.15;1.92;;;;;;;20.53;55.10;97045.59;10230609;28;20076;-55
2022/07/21 03:11:21;;;;;;;2.10;1.80;;;;;;;20.52;54.85;97047.53;10206440;29;20055;-57
2022/07/21 03:16:40;;;;;;;2.70;2.10;;;;;;;20.51;54.74;97048.63;10217139;29;20467;-56
2022/07/21 03:21:59;;;;;;;2.00;1.80;;;;;;;20.50;54.71;97047.06;10217152;29;20059;-55
2022/07/21 03:27:19;;;;;;;2.97;2.10;;;;;;;20.51;54.75;97048.63;10216841;29;20055;-56
2022/07/21 03:32:38;;;;;;;2.08;1.65;;;;;;;20.50;54.68;97038.94;10216617;29;20071;-57
2022/07/21 03:37:59;;;;;;;3.15;1.90;;;;;;;20.49;54.73;97031.13;10215942;29;20499;-56
2022/07/21 03:43:19;;;;;;;2.10;1.75;;;;;;;20.50;54.65;97043.53;10215216;29;20110;-57
2022/07/21 03:48:39;;;;;;;2.92;2.00;;;;;;;20.50;54.57;97040.81;10216266;29;20063;-57
2022/07/21 03:53:59;;;;;;;2.10;1.83;;;;;;;20.49;54.50;97033.84;10202022;29;20056;-57
2022/07/21 03:59:18;;;;;;;2.38;1.90;;;;;;;20.48;54.61;97048.47;10228475;29;20048;-57
2022/07/21 04:04:37;;;;;;;2.70;2.10;;;;;;;20.48;54.71;97070.94;10228196;28;20067;-57
2022/07/21 04:09:56;;;;;;;3.42;2.03;;;;;;;20.47;53.94;97087.50;10228078;28;20059;-56
2022/07/21 04:15:16;;;;;;;9.55;2.80;;;;;;;20.42;53.46;97077.63;10214974;29;20063;-58
2022/07/21 04:20:36;;;;;;;3.35;2.25;;;;;;;20.21;54.05;97091.06;10214958;29;20070;-56
2022/07/21 04:25:56;;;;;;;3.72;2.47;;;;;;;20.01;54.54;97094.41;10226940;29;20522;-57
2022/07/21 04:31:15;;;;;;;5.53;2.30;;;;;;;19.90;54.58;97089.34;10214358;29;20059;-57
2022/07/21 04:36:34;;;;;;;3.25;2.28;;;;;;;19.88;54.39;97069.94;10214512;29;20055;-58
2022/07/21 04:41:53;;;;;;;4.40;2.40;;;;;;;19.86;56.54;97066.75;10227073;28;20063;-57
2022/07/21 04:47:12;;;;;;;2.70;2.30;;;;;;;19.85;56.70;97057.03;10226586;28;20062;-57
2022/07/21 04:52:32;;;;;;;4.75;2.30;;;;;;;19.88;57.12;97045.59;10225370;28;20047;-57
2022/07/21 04:57:52;;;;;;;3.47;2.33;;;;;;;19.91;58.86;97053.06;10226391;28;20052;-57
2022/07/21 05:03:13;;;;;;;4.53;2.78;;;;;;;19.96;59.30;97062.94;10223263;28;20055;-57
2022/07/21 05:08:32;;;;;;;5.15;2.70;;;;;;;20.03;58.39;97054.31;10201587;29;20240;-56
2022/07/21 05:13:52;;;;;;;7.15;3.05;;;;;;;20.09;57.96;97051.16;10214229;29;20052;-55
2022/07/21 05:19:12;;;;;;;5.95;2.97;;;;;;;20.15;57.70;97059.88;10212402;29;20562;-57
2022/07/21 05:24:32;;;;;;;5.95;3.08;;;;;;;20.17;57.43;97065.78;10229368;28;20043;-56
2022/07/21 05:29:51;;;;;;;7.82;2.95;;;;;;;20.20;57.42;97059.69;10231716;28;20047;-57
2022/07/21 05:35:11;;;;;;;4.65;3.05;;;;;;;20.21;57.18;97066.72;10212444;29;20064;-57
2022/07/21 05:40:30;;;;;;;5.50;2.92;;;;;;;20.23;57.15;97064.47;10200891;29;20131;-56
2022/07/21 05:45:49;;;;;;;8.82;3.05;;;;;;;20.26;57.11;97063.03;10212353;29;20052;-57
2022/07/21 05:51:09;;;;;;;6.82;3.13;;;;;;;20.26;57.13;97055.69;10211630;29;20058;-57
2022/07/21 05:56:28;;;;;;;6.65;2.65;;;;;;;20.27;57.04;97060.00;10212116;29;20062;-55
2022/07/21 06:01:47;;;;;;;4.03;2.50;;;;;;;20.28;57.07;97053.47;10212252;29;20056;-57
2022/07/21 06:07:07;;;;;;;4.68;2.88;;;;;;;20.28;57.18;97034.53;10220417;29;20067;-57
2022/07/21 06:12:27;;;;;;;4.82;2.90;;;;;;;20.29;57.05;97029.94;10219611;29;20060;-57
2022/07/21 06:17:46;;;;;;;5.47;2.50;;;;;;;20.30;57.09;97036.91;10232543;29;20541;-57
2022/07/21 06:23:06;;;;;;;8.13;3.10;;;;;;;20.31;57.10;97065.56;10236006;29;20451;-55
2022/07/21 06:28:25;;;;;;;3.85;2.38;;;;;;;20.30;57.17;97075.59;10223988;29;20063;-57
2022/07/21 06:33:45;;;;;;;3.63;2.50;;;;;;;20.31;57.22;97077.19;10218903;29;20056;-56
2022/07/21 06:39:05;;;;;;;4.05;2.47;;;;;;;20.31;57.26;97077.19;10218917;29;20499;-57
2022/07/21 06:44:24;;;;;;;4.20;2.83;;;;;;;20.32;57.20;97095.00;10218837;29;20451;-55
2022/07/21 06:49:44;;;;;;;3.88;2.47;;;;;;;20.32;57.39;97095.00;10218501;29;20388;-57
2022/07/21 06:55:05;;;;;;;4.20;2.70;;;;;;;20.32;57.33;97105.03;10218363;29;20070;-57
2022/07/21 07:00:24;;;;;;;4.70;2.60;;;;;;;20.33;57.32;97107.41;10218516;29;20059;-55
2022/07/21 07:05:45;;;;;;;3.70;2.42;;;;;;;20.33;57.29;97109.34;10219561;29;20418;-57
2022/07/21 07:11:05;;;;;;;4.35;2.53;;;;;;;20.33;57.39;97107.41;10207128;29;20051;-57
2022/07/21 07:16:25;;;;;;;3.10;2.38;;;;;;;20.32;57.29;97113.94;10222875;28;20059;-57
2022/07/21 07:21:44;;;;;;;2.70;2.38;;;;;;;20.33;57.41;97114.75;10217030;29;20060;-57
2022/07/21 07:27:03;;;;;;;3.55;2.50;;;;;;;20.33;57.40;97110.13;10227782;29;20066;-56
2022/07/21 07:32:23;;;;;;;3.33;2.30;;;;;;;20.33;57.46;97112.84;10216870;29;20048;-57
2022/07/21 07:37:44;;;;;;;4.82;2.47;;;;;;;20.35;57.49;97113.31;10217028;29;20067;-57
2022/07/21 07:43:03;;;;;;;3.42;2.30;;;;;;;20.34;57.50;97119.81;10216572;29;20052;-57
2022/07/21 07:48:22;;;;;;;4.32;2.55;;;;;;;20.34;57.59;97106.28;10205695;29;20063;-57
2022/07/21 07:53:42;;;;;;;2.70;2.33;;;;;;;20.35;57.75;97118.72;10216357;29;20051;-57
2022/07/21 07:59:01;;;;;;;3.13;2.50;;;;;;;20.36;57.78;97108.69;10212413;29;20056;-55
2022/07/21 08:04:20;;;;;;;4.45;2.53;;;;;;;20.38;57.75;97121.91;10214898;29;20117;-57
2022/07/21 08:09:40;;;;;;;4.78;2.40;;;;;;;20.37;57.80;97121.09;10215082;29;20051;-57
2022/07/21 08:14:59;;;;;;;3.53;2.45;;;;;;;20.37;57.84;97128.44;10225500;28;20562;-56
2022/07/21 08:20:18;;;;;;;2.63;2.28;;;;;;;20.38;57.86;97124.59;10215656;29;20056;-57
2022/07/21 08:25:39;;;;;;;2.45;2.10;;;;;;;20.37;57.81;97134.63;10221578;29;20415;-57
2022/07/21 08:30:58;;;;;;;3.35;2.40;;;;;;;20.39;57.93;97137.03;10214377;29;20056;-57
2022/07/21 08:36:18;;;;;;;3.53;2.33;;;;;;;20.39;57.98;97137.03;10227152;28;20059;-57
2022/07/21 08:41:37;;;;;;;3.33;2.40;;;;;;;20.39;58.03;97137.03;10214201;29;20055;-57
2022/07/21 08:46:58;;;;;;;3.08;2.50;;;;;;;20.38;58.07;97135.41;10213595;29;20138;-57
2022/07/21 08:52:18;;;;;;;3.25;2.50;;;;;;;20.39;58.10;97142.44;10213964;29;20063;-57
2022/07/21 08:57:39;;;;;;;4.28;2.40;;;;;;;20.40;58.19;97138.59;10197234;29;20066;-56
2022/07/21 09:03:14;;;;;;;3.10;2.33;;;;;;;20.40;58.17;97144.00;10213274;29;20574;-56
2022/07/21 09:08:39;;;;;;;3.83;2.13;;;;;;;20.40;58.24;97139.38;10212742;29;20063;-57
2022/07/21 09:14:07;;;;;;;5.03;2.60;;;;;;;20.41;58.18;97145.63;10200751;29;20052;-57
2022/07/21 09:19:35;;;;;;;3.03;2.30;;;;;;;20.41;58.13;97149.09;10181559;29;20067;-57
2022/07/21 09:24:54;;;;;;;6.85;2.72;;;;;;;20.42;58.31;97136.38;10237486;28;20063;-57
2022/07/21 09:30:13;;;;;;;3.97;2.55;;;;;;;20.42;58.38;97136.38;10201729;29;20512;-58
2022/07/21 09:35:33;;;;;;;6.22;2.50;;;;;;;20.43;58.75;97127.94;10198261;29;20107;-55
2022/07/21 09:40:53;;;;;;;5.28;2.53;;;;;;;20.45;59.00;97138.44;10224459;29;20056;-55
2022/07/21 09:46:18;;;;;;;7.10;2.58;;;;;;;20.45;59.22;97136.53;10214920;28;20052;-55
2022/07/21 09:51:39;;;;;;;6.70;2.65;;;;;;;20.48;59.40;97143.19;10211732;29;20498;-55
2022/07/21 09:56:59;;;;;;;8.15;2.80;;;;;;;20.48;59.71;97146.72;10210216;29;20068;-55
2022/07/21 10:02:23;;;;;;;3.05;2.63;;;;;;;20.44;59.03;97143.03;10225139;29;20055;-55
2022/07/21 10:07:44;;;;;;;3.65;2.70;;;;;;;20.42;59.49;97144.47;10211948;29;20052;-55
2022/07/21 10:13:05;;;;;;;3.78;2.30;;;;;;;20.41;59.74;97151.81;10224789;29;20058;-55
2022/07/21 10:18:33;;;;;;;4.68;2.47;;;;;;;20.42;59.81;97147.19;10201294;29;20056;-55
2022/07/21 10:23:54;;;;;;;4.40;2.28;;;;;;;20.43;59.81;97140.69;10197390;29;20063;-56
2022/07/21 10:29:52;;;;;;;2.80;2.33;;;;;;;20.42;59.47;97145.28;10211032;29;20500;-56
2022/07/21 10:35:31;;;;;;;4.60;2.60;;;;;;;20.41;60.03;97141.00;10211995;29;20055;-56
2022/07/21 10:40:50;;;;;;;3.50;2.30;;;;;;;20.41;59.33;97130.16;10205147;29;20052;-56
2022/07/21 10:46:32;;;;;;;3.97;2.60;;;;;;;20.41;59.80;97132.09;10211698;29;20059;-56
2022/07/21 10:51:51;;;;;;;3.65;2.50;;;;;;;20.41;59.56;97130.16;10216797;29;20056;-56
2022/07/21 10:57:27;;;;;;;3.65;2.70;;;;;;;20.39;58.20;97128.91;10216581;28;20055;-56
2022/07/21 11:02:54;;;;;;;4.97;2.83;;;;;;;20.34;58.30;97130.63;10230582;28;20063;-57
2022/07/21 11:08:20;;;;;;;4.55;2.85;;;;;;;20.38;58.85;97127.31;10230414;28;20052;-56
2022/07/21 11:13:59;;;;;;;3.80;2.67;;;;;;;20.40;59.34;97127.78;10217220;29;20062;-59
2022/07/21 11:19:39;;;;;;;4.87;2.70;;;;;;;20.42;59.14;97122.84;10207691;29;20063;-58
2022/07/21 11:25:01;;;;;;;3.60;2.60;;;;;;;20.40;59.21;97122.38;10226041;29;20118;-59
2022/07/21 11:30:20;;;;;;;3.92;2.47;;;;;;;20.39;59.21;97121.56;10216804;29;20055;-58
2022/07/21 11:35:39;;;;;;;4.78;2.95;;;;;;;20.41;59.20;97130.16;10207915;29;20059;-58
2022/07/21 11:41:18;;;;;;;2.92;2.50;;;;;;;20.41;58.32;97123.97;10229217;28;20058;-58
2022/07/21 11:46:51;;;;;;;2.85;2.40;;;;;;;20.40;58.99;97122.38;10226826;28;20047;-58
2022/07/21 11:52:13;;;;;;;3.50;2.45;;;;;;;20.41;58.95;97113.16;10216315;29;20056;-58
2022/07/21 11:57:33;;;;;;;2.55;2.35;;;;;;;20.39;58.79;97120.78;10216232;29;20060;-58
2022/07/21 12:03:04;;;;;;;3.00;2.50;;;;;;;20.40;58.94;97111.53;10215639;29;20064;-58
2022/07/21 12:08:24;;;;;;;2.42;2.20;;;;;;;20.41;58.79;97116.63;10228234;28;20055;-59
2022/07/21 12:13:57;;;;;;;5.13;2.72;;;;;;;20.42;59.10;97112.00;10215624;29;20060;-57
2022/07/21 12:19:18;;;;;;;2.40;2.20;;;;;;;20.42;58.44;97117.44;10170011;29;20063;-58
2022/07/21 12:24:58;;;;;;;4.35;2.60;;;;;;;20.41;59.19;97108.53;10187478;29;20060;-58
2022/07/21 12:30:35;;;;;;;2.47;2.28;;;;;;;20.44;59.31;97109.78;10175441;29;20059;-58
2022/07/21 12:36:03;;;;;;;5.72;2.80;;;;;;;20.45;59.35;97100.56;10172052;29;20056;-58
2022/07/21 12:41:22;;;;;;;6.30;2.73;;;;;;;20.48;59.42;97113.44;10175294;29;20063;-59
2022/07/21 12:46:44;;;;;;;4.13;2.63;;;;;;;20.49;59.58;97102.28;10159096;29;20625;-59
2022/07/21 12:52:05;;;;;;;5.63;2.63;;;;;;;20.50;59.97;97105.78;10190643;29;20052;-58
2022/07/21 12:57:28;;;;;;;6.13;3.28;;;;;;;20.52;60.39;97104.34;10174557;29;20064;-57
2022/07/21 13:02:50;;;;;;;4.72;2.92;;;;;;;20.52;60.69;97103.53;10178175;29;20051;-58
2022/07/21 13:08:09;;;;;;;4.75;2.45;;;;;;;20.54;61.56;97102.13;10186745;29;20497;-57
2022/07/21 13:13:29;;;;;;;5.32;2.78;;;;;;;20.56;62.01;97101.78;10172516;29;20079;-58
2022/07/21 13:18:49;;;;;;;3.53;2.88;;;;;;;20.58;62.41;97099.56;10210542;29;20055;-59
2022/07/21 13:24:08;;;;;;;6.10;3.03;;;;;;;20.58;62.41;97113.09;10237289;28;20054;-57
2022/07/21 13:29:27;;;;;;;5.03;2.60;;;;;;;20.58;62.71;97099.56;10225309;29;20062;-57
2022/07/21 13:34:47;;;;;;;5.03;2.70;;;;;;;20.59;62.75;97103.88;10212218;29;20063;-58
2022/07/21 13:40:07;;;;;;;4.65;2.90;;;;;;;20.60;63.19;97110.91;10201381;29;20067;-56
2022/07/21 13:45:26;;;;;;;3.05;2.75;;;;;;;20.59;62.93;97114.69;10212484;29;20067;-57
2022/07/21 13:50:45;;;;;;;3.30;2.88;;;;;;;20.60;62.92;97120.91;10212208;29;20056;-59
2022/07/21 13:56:05;;;;;;;3.42;2.63;;;;;;;20.61;62.79;97136.84;10212140;29;20495;-57
2022/07/21 14:01:25;;;;;;;2.97;2.60;;;;;;;20.60;62.89;97135.25;10209592;29;20499;-57
2022/07/21 14:06:49;;;;;;;4.50;2.80;;;;;;;20.61;62.74;97139.53;10211340;29;20122;-57
2022/07/21 14:12:09;;;;;;;3.40;3.08;;;;;;;20.61;62.40;97146.88;10210737;29;20496;-56
2022/07/21 14:17:29;;;;;;;4.45;2.85;;;;;;;20.61;62.24;97152.28;10211170;29;20059;-57
2022/07/21 14:22:48;;;;;;;2.80;2.50;;;;;;;20.61;62.14;97138.75;10210564;28;20055;-57
2022/07/21 14:28:08;;;;;;;4.13;2.65;;;;;;;20.60;62.07;97146.09;10223787;29;20064;-55
2022/07/21 14:33:29;;;;;;;4.07;2.47;;;;;;;20.62;62.04;97146.56;10218105;29;20060;-55
2022/07/21 14:38:49;;;;;;;3.17;2.60;;;;;;;20.63;62.14;97150.84;10218740;29;20056;-56
2022/07/21 14:44:08;;;;;;;2.95;2.60;;;;;;;20.64;62.31;97143.50;10215266;29;20048;-56
2022/07/21 14:49:28;;;;;;;3.00;2.70;;;;;;;20.64;62.07;97143.50;10204296;29;20423;-57
2022/07/21 14:54:47;;;;;;;3.95;2.90;;;;;;;20.64;61.94;97138.09;10231015;28;20547;-56
2022/07/21 15:00:09;;;;;;;3.85;2.53;;;;;;;20.63;61.64;97148.13;10217491;29;20432;-56
2022/07/21 15:05:28;;;;;;;4.13;2.60;;;;;;;20.64;61.58;97149.72;10217825;29;20060;-57
2022/07/21 15:10:49;;;;;;;2.75;2.47;;;;;;;20.65;61.85;97153.22;10230128;28;20047;-56
2022/07/21 15:16:08;;;;;;;3.00;2.70;;;;;;;20.65;61.85;97150.53;10217460;29;20068;-55
2022/07/21 15:21:27;;;;;;;2.67;2.47;;;;;;;20.65;61.78;97145.91;10230084;28;20066;-57
2022/07/21 15:26:46;;;;;;;3.47;2.63;;;;;;;20.65;61.67;97162.13;10228829;29;20115;-57
2022/07/21 15:32:06;;;;;;;2.75;2.47;;;;;;;20.67;61.80;97167.22;10215854;29;20051;-57
2022/07/21 15:37:26;;;;;;;5.05;2.45;;;;;;;20.68;62.00;97175.03;10228730;28;20111;-57
2022/07/21 15:42:45;;;;;;;3.42;2.40;;;;;;;20.70;62.19;97172.03;10216034;29;20091;-57
2022/07/21 15:48:05;;;;;;;2.72;2.50;;;;;;;20.71;62.22;97174.38;10228884;29;20055;-56
2022/07/21 15:53:24;;;;;;;2.78;2.50;;;;;;;20.71;62.18;97163.53;10215970;29;20056;-56
2022/07/21 16:04:22;;;;;;;4.00;3.08;;;;;;;20.72;62.27;97175.97;10215959;29;20079;-61
2022/07/21 16:09:42;;;;;;;5.53;3.50;;;;;;;20.72;62.17;97172.50;10215912;29;20060;-63
2022/07/21 16:15:04;;;;;;;3.65;3.35;;;;;;;20.74;62.30;97176.44;10214976;29;20060;-61
2022/07/21 16:20:23;;;;;;;4.68;3.53;;;;;;;20.73;62.37;97182.97;10204080;29;20106;-61
2022/07/21 16:25:43;;;;;;;4.03;3.50;;;;;;;20.73;62.39;97185.69;10214834;29;20063;-57
2022/07/21 16:31:02;;;;;;;4.20;3.80;;;;;;;20.73;62.34;97174.06;10213655;29;20056;-57
2022/07/21 16:36:22;;;;;;;3.97;3.58;;;;;;;20.72;62.13;97161.66;10214635;29;20056;-57
2022/07/21 16:41:41;;;;;;;4.68;3.50;;;;;;;20.72;62.16;97169.78;10214344;29;20063;-57
2022/07/21 16:47:01;;;;;;;3.40;3.20;;;;;;;20.72;61.96;97167.88;10213839;29;20122;-55
2022/07/21 16:52:20;;;;;;;4.03;3.63;;;;;;;20.72;61.94;97175.97;10213950;29;20056;-57
2022/07/21 16:57:39;;;;;;;3.85;3.38;;;;;;;20.73;61.85;97180.25;10213302;29;20052;-57
2022/07/21 17:02:59;;;;;;;4.05;3.65;;;;;;;20.72;62.04;97170.56;10223853;28;20054;-57
2022/07/21 17:08:18;;;;;;;3.80;3.50;;;;;;;20.74;62.00;97181.09;10226146;28;20052;-60
2022/07/21 17:13:38;;;;;;;6.15;4.93;;;;;;;20.75;62.09;97190.78;10213489;29;20051;-58
2022/07/21 17:18:57;;;;;;;6.00;5.40;;;;;;;20.77;62.12;97179.63;10212928;29;20066;-57
2022/07/21 17:24:16;;;;;;;6.60;5.43;;;;;;;20.77;62.20;97174.22;10222097;28;20066;-56
2022/07/21 17:29:35;;;;;;;6.13;5.57;;;;;;;20.77;61.92;97166.09;10212777;29;20067;-57
2022/07/21 17:34:55;;;;;;;6.63;5.93;;;;;;;20.78;62.01;97178.50;10212447;29;20059;-57
2022/07/21 17:40:15;;;;;;;6.47;5.93;;;;;;;20.77;61.85;97163.38;10200605;29;20060;-57
2022/07/21 17:45:35;;;;;;;6.60;6.00;;;;;;;20.77;61.63;97158.75;10225196;28;20106;-57
2022/07/21 17:50:54;;;;;;;6.18;5.38;;;;;;;20.77;61.72;97147.16;10212290;29;20052;-57
2022/07/21 17:56:13;;;;;;;6.57;5.80;;;;;;;20.77;61.52;97163.38;10225003;28;20090;-57
2022/07/21 18:01:33;;;;;;;5.85;5.30;;;;;;;20.77;61.64;97153.34;10231004;29;20054;-58
2022/07/21 18:06:52;;;;;;;6.35;5.70;;;;;;;20.78;61.52;97154.13;10220101;29;20060;-57
2022/07/21 18:12:11;;;;;;;6.25;5.38;;;;;;;20.78;61.74;97151.44;10219754;29;20055;-58
2022/07/21 18:17:31;;;;;;;8.45;6.25;;;;;;;20.78;61.99;97148.72;10207968;29;20087;-57
2022/07/21 18:22:50;;;;;;;6.22;5.65;;;;;;;20.80;62.05;97155.41;10224452;29;20051;-58
2022/07/21 18:28:12;;;;;;;6.60;5.55;;;;;;;20.81;61.83;97148.09;10223571;29;20056;-59
2022/07/21 18:33:32;;;;;;;6.80;5.68;;;;;;;20.80;61.49;97146.50;10218064;29;20052;-58
2022/07/21 18:38:51;;;;;;;6.25;5.65;;;;;;;20.80;61.27;97146.50;10231751;28;20063;-58
2022/07/21 18:44:10;;;;;;;5.88;5.28;;;;;;;20.78;61.38;97151.44;10231507;28;20048;-56
2022/07/21 18:49:30;;;;;;;6.55;5.68;;;;;;;20.79;61.56;97158.44;10218189;29;20468;-58
2022/07/21 18:54:50;;;;;;;6.15;5.63;;;;;;;20.78;61.44;97154.13;10217801;29;20055;-57
2022/07/21 19:00:13;;;;;;;6.78;5.50;;;;;;;20.79;61.25;97155.72;10217260;29;20063;-57
2022/07/21 19:05:34;;;;;;;5.55;5.05;;;;;;;20.78;61.37;97167.66;10203511;29;20101;-60
2022/07/21 19:10:55;;;;;;;5.80;5.18;;;;;;;20.76;61.40;97159.06;10215972;29;20058;-60
2022/07/21 19:16:18;;;;;;;6.10;5.50;;;;;;;20.76;61.39;97161.78;10184013;29;20067;-62
2022/07/21 19:21:39;;;;;;;6.80;5.20;;;;;;;20.74;61.52;97173.75;10216952;29;20056;-60
2022/07/21 19:27:00;;;;;;;6.43;5.82;;;;;;;20.74;61.54;97167.53;10227724;29;20060;-60
2022/07/21 19:32:21;;;;;;;6.30;5.70;;;;;;;20.74;61.65;97167.53;10216723;29;20491;-59
2022/07/21 19:37:41;;;;;;;6.13;5.53;;;;;;;20.73;61.80;97174.84;10217183;29;20444;-58
2022/07/21 19:43:02;;;;;;;6.50;5.80;;;;;;;20.72;61.73;97175.19;10216044;29;20063;-60
2022/07/21 19:48:22;;;;;;;7.90;5.82;;;;;;;20.72;61.77;97180.59;10216646;29;21117;-59
2022/07/21 19:53:41;;;;;;;6.45;5.85;;;;;;;20.72;61.69;97183.31;10216331;29;20048;-60
2022/07/21 19:59:01;;;;;;;8.05;6.28;;;;;;;20.73;61.76;97179.47;10216123;29;20071;-57
2022/07/21 20:04:21;;;;;;;7.55;6.30;;;;;;;20.72;62.05;97173.28;10228802;28;20392;-57
2022/07/21 20:09:41;;;;;;;6.60;5.93;;;;;;;20.70;62.29;97180.94;10215823;29;20059;-57
2022/07/21 20:15:01;;;;;;;6.88;6.07;;;;;;;20.70;62.34;97180.94;10214603;29;20468;-55
2022/07/21 20:20:20;;;;;;;10.00;6.95;;;;;;;20.70;62.14;97183.63;10215306;29;20066;-58
2022/07/21 20:25:40;;;;;;;7.50;6.80;;;;;;;20.71;61.94;97182.50;10219684;29;20504;-58
2022/07/21 20:31:01;;;;;;;7.50;6.70;;;;;;;20.72;61.94;97177.91;10227135;28;20055;-57
2022/07/21 20:36:20;;;;;;;7.05;6.35;;;;;;;20.72;61.89;97183.31;10200257;29;20476;-58
2022/07/21 20:41:40;;;;;;;7.10;6.40;;;;;;;20.72;61.75;97184.09;10214297;29;20048;-58
2022/07/21 20:47:00;;;;;;;6.80;6.20;;;;;;;20.72;61.74;97178.69;10213364;29;20059;-58
2022/07/21 20:52:20;;;;;;;7.35;6.65;;;;;;;20.73;61.76;97174.06;10226831;28;20392;-58
2022/07/21 20:57:39;;;;;;;7.25;6.55;;;;;;;20.73;61.75;97179.47;10213225;29;20412;-58
2022/07/21 21:02:59;;;;;;;7.35;6.65;;;;;;;20.72;61.79;97184.09;10226605;28;20047;-58
2022/07/21 21:08:18;;;;;;;6.95;6.35;;;;;;;20.71;61.83;97187.91;10213440;29;20060;-57
2022/07/21 21:13:38;;;;;;;6.80;6.22;;;;;;;20.73;61.75;97184.88;10212744;29;20052;-58
2022/07/21 21:18:57;;;;;;;6.85;6.25;;;;;;;20.72;61.76;97200.34;10212883;29;20063;-58
2022/07/21 21:24:16;;;;;;;7.55;6.85;;;;;;;20.72;61.60;97200.34;10212865;29;20060;-58
2022/07/21 21:29:36;;;;;;;7.10;6.35;;;;;;;20.72;61.61;97194.94;10213045;29;20060;-58
2022/07/21 21:34:55;;;;;;;7.32;6.63;;;;;;;20.72;61.62;97203.06;10211859;29;20120;-58
2022/07/21 21:40:14;;;;;;;7.38;6.68;;;;;;;20.72;61.49;97199.56;10225370;28;20051;-58
2022/07/21 21:45:34;;;;;;;6.95;6.15;;;;;;;20.72;61.47;97205.75;10212645;29;20063;-57
2022/07/21 21:50:54;;;;;;;7.25;6.60;;;;;;;20.73;61.38;97195.72;10225005;28;20380;-56
2022/07/21 21:56:13;;;;;;;6.57;5.97;;;;;;;20.71;61.39;97204.16;10224851;29;20052;-58
2022/07/21 22:01:32;;;;;;;7.40;6.40;;;;;;;20.71;61.38;97200.66;10211776;29;20052;-58
2022/07/21 22:06:52;;;;;;;6.78;6.18;;;;;;;20.71;61.34;97203.38;10212775;29;20063;-58
2022/07/21 22:12:11;;;;;;;7.03;6.43;;;;;;;20.70;61.41;97199.88;10206129;29;20064;-58
2022/07/21 22:17:30;;;;;;;6.53;5.95;;;;;;;20.72;61.24;97204.97;10211264;29;20055;-58
2022/07/21 22:22:50;;;;;;;7.03;6.40;;;;;;;20.71;61.26;97204.16;10211862;29;20079;-57
2022/07/21 22:28:09;;;;;;;6.93;6.15;;;;;;;20.71;61.17;97196.03;10200796;29;20063;-57
2022/07/21 22:33:28;;;;;;;6.72;6.18;;;;;;;20.71;61.24;97198.75;10224274;29;20052;-58
2022/07/21 22:38:47;;;;;;;6.78;6.18;;;;;;;20.70;61.21;97199.88;10210944;29;20055;-58
2022/07/21 22:44:07;;;;;;;7.90;7.15;;;;;;;20.70;61.16;97202.59;10211974;29;20055;-58
2022/07/21 22:49:26;;;;;;;11.07;6.50;;;;;;;20.70;61.29;97197.16;10231487;28;20047;-58
2022/07/21 22:54:45;;;;;;;7.60;6.90;;;;;;;20.70;61.09;97210.72;10221512;29;20059;-58
2022/07/21 23:00:06;;;;;;;7.10;6.50;;;;;;;20.70;61.22;97204.50;10218459;29;20052;-57
2022/07/21 23:05:26;;;;;;;7.32;6.65;;;;;;;20.69;61.15;97214.50;10217952;29;20062;-57
2022/07/21 23:10:46;;;;;;;7.28;6.57;;;;;;;20.70;61.12;97210.72;10211311;29;20070;-58
2022/07/21 23:16:06;;;;;;;7.53;6.82;;;;;;;20.70;61.21;97202.59;10225364;28;20052;-58
2022/07/21 23:21:25;;;;;;;7.63;6.78;;;;;;;20.69;61.07;97194.78;10230809;28;20544;-58
2022/07/21 23:26:45;;;;;;;7.78;6.90;;;;;;;20.69;61.21;97203.69;10217163;29;20059;-58
2022/07/21 23:32:04;;;;;;;7.40;6.70;;;;;;;20.69;61.20;97206.41;10229690;28;20052;-58
2022/07/21 23:37:24;;;;;;;7.70;7.00;;;;;;;20.68;61.07;97207.53;10216956;29;20060;-57
2022/07/21 23:42:43;;;;;;;7.60;6.90;;;;;;;20.68;61.15;97210.22;10216889;29;20064;-58
2022/07/21 23:48:02;;;;;;;7.50;6.80;;;;;;;20.68;61.14;97204.81;10216003;29;20060;-58
2022/07/21 23:53:22;;;;;;;7.38;6.65;;;;;;;20.68;61.22;97214.84;10216386;29;20051;-58
2022/07/21 23:58:41;;;;;;;8.55;7.63;;;;;;;20.68;61.21;97212.94;10215034;29;20063;-57
